Time;durP1;ratioP1;P1;durP2;ratioP2;P2;SDS_P1;SDS_P2;PMS_P1;PMS_P2;Temp;Humidity;BMP_temperature;BMP_pressure;BME280_temperature;BME280_humidity;BME280_pressure;Samples;Min_cycle;Max_cycle;Signal;HPM_P1;HPM_P2
2023/05/31 00:00:13;;;;;;;12.85;2.97;;;;;;;-144.47;47.67;52574.06;5011397;28;20056;-63
2023/05/31 00:02:38;;;;;;;4.85;2.22;;;;;;;-144.47;47.57;52570.09;5017010;28;20026;-62
2023/05/31 00:05:04;;;;;;;7.55;1.90;;;;;;;-144.47;47.50;52550.25;5002094;28;20394;-62
2023/05/31 00:07:30;;;;;;;7.72;2.30;;;;;;;-144.47;47.42;52593.94;5010267;28;20100;-58
2023/05/31 00:09:55;;;;;;;11.93;2.20;;;;;;;-144.47;47.27;52564.13;5010059;28;20026;-62
2023/05/31 00:12:21;;;;;;;11.95;2.22;;;;;;;-144.47;46.90;52562.16;5008890;28;20032;-63
2023/05/31 00:14:47;;;;;;;6.50;2.20;;;;;;;-144.47;46.45;52584.00;5009509;28;20022;-64
2023/05/31 00:17:12;;;;;;;4.70;1.92;;;;;;;-144.47;46.18;52544.28;5009705;28;20626;-64
2023/05/31 00:19:39;;;;;;;6.35;2.22;;;;;;;-144.47;46.05;52578.03;5008090;28;20101;-62
2023/05/31 00:22:05;;;;;;;7.25;2.28;;;;;;;-144.47;45.79;52572.09;5009476;28;20038;-63
2023/05/31 00:24:30;;;;;;;5.00;1.73;;;;;;;-144.47;45.80;52570.09;5008897;28;20328;-63
2023/05/31 00:26:56;;;;;;;11.00;1.98;;;;;;;-144.47;45.73;52570.09;5009750;28;20649;-64
2023/05/31 00:29:21;;;;;;;5.38;1.80;;;;;;;-144.47;45.33;52597.91;5009611;28;20056;-63
2023/05/31 00:31:46;;;;;;;6.85;2.17;;;;;;;-144.47;45.29;52560.16;5010000;28;20024;-59
2023/05/31 00:34:12;;;;;;;8.70;1.85;;;;;;;-144.47;45.46;52595.91;5009139;28;20034;-63
2023/05/31 00:36:37;;;;;;;9.70;3.50;;;;;;;-144.47;45.59;52564.13;5009765;28;20025;-62
2023/05/31 00:39:03;;;;;;;10.57;2.30;;;;;;;-144.47;45.55;52584.00;5009520;28;20424;-62
2023/05/31 00:41:28;;;;;;;4.88;2.00;;;;;;;-144.47;45.73;52593.94;5009624;28;20056;-60
2023/05/31 00:43:54;;;;;;;7.78;2.20;;;;;;;-144.47;45.76;52587.97;5008664;28;20032;-63
2023/05/31 00:46:32;;;;;;;5.70;1.95;;;;;;;-144.47;45.83;52570.09;5009574;28;20041;-63
2023/05/31 00:48:58;;;;;;;13.45;2.35;;;;;;;-144.47;45.78;52574.06;5009425;28;20025;-61
2023/05/31 00:51:28;;;;;;;6.63;2.28;;;;;;;-144.47;45.85;52580.03;5009394;28;20570;-63
2023/05/31 00:53:55;;;;;;;5.57;1.90;;;;;;;-144.47;46.02;52589.97;5008342;28;20705;-63
2023/05/31 00:56:21;;;;;;;7.32;2.20;;;;;;;-144.47;46.18;52587.97;5009232;28;20087;-61
2023/05/31 00:58:48;;;;;;;4.25;1.88;;;;;;;-144.47;46.18;52570.09;5007944;28;20018;-62
2023/05/31 01:01:14;;;;;;;9.02;2.45;;;;;;;-144.47;46.14;52580.03;5009224;28;20395;-63
2023/05/31 01:03:41;;;;;;;6.75;2.28;;;;;;;-144.47;46.42;52556.19;5005430;28;20026;-62
2023/05/31 01:06:07;;;;;;;7.45;2.35;;;;;;;-144.47;46.38;52568.13;5001477;28;20029;-64
2023/05/31 01:08:33;;;;;;;9.02;2.38;;;;;;;-144.47;46.41;52591.94;5008585;28;20116;-64
2023/05/31 01:11:07;;;;;;;6.40;2.22;;;;;;;-144.47;46.53;52552.22;5009365;28;20404;-62
2023/05/31 01:13:42;;;;;;;9.25;2.65;;;;;;;-144.47;46.49;52582.00;5007994;28;20071;-61
2023/05/31 01:16:20;;;;;;;10.98;2.33;;;;;;;-144.47;46.65;52574.06;5009284;28;20365;-64
2023/05/31 01:18:54;;;;;;;10.65;2.00;;;;;;;-144.47;46.90;52564.13;5009986;28;20029;-64
2023/05/31 01:21:26;;;;;;;5.43;2.00;;;;;;;-144.47;46.95;52578.03;5008603;28;20030;-63
2023/05/31 01:24:04;;;;;;;10.38;2.88;;;;;;;-144.47;47.19;52556.19;5003876;28;20029;-63
2023/05/31 01:26:37;;;;;;;6.63;2.10;;;;;;;-144.47;47.47;52587.97;4997156;28;20034;-63
2023/05/31 01:29:09;;;;;;;7.45;2.03;;;;;;;-144.47;47.52;52584.00;5008674;28;20038;-63
2023/05/31 01:31:37;;;;;;;10.85;2.85;;;;;;;-144.47;47.96;52578.03;5012193;28;20022;-61
2023/05/31 01:34:04;;;;;;;10.55;2.67;;;;;;;-144.47;47.87;52595.91;5012077;28;20066;-63
2023/05/31 01:36:31;;;;;;;5.60;2.10;;;;;;;-144.47;48.19;52589.97;5012948;28;20065;-62
2023/05/31 01:38:56;;;;;;;8.95;2.10;;;;;;;-144.47;48.36;52576.06;5012894;28;20037;-63
2023/05/31 01:41:24;;;;;;;8.40;2.33;;;;;;;-144.47;48.64;52585.97;5012712;28;20084;-62
2023/05/31 01:43:50;;;;;;;9.10;1.98;;;;;;;-144.47;48.92;52568.13;5011894;28;20830;-62
2023/05/31 01:46:18;;;;;;;10.05;2.40;;;;;;;-144.47;49.08;52587.97;5011567;28;20030;-63
2023/05/31 01:48:45;;;;;;;9.02;2.10;;;;;;;-144.47;49.32;52576.06;5011310;28;20037;-63
2023/05/31 01:51:14;;;;;;;13.18;2.22;;;;;;;-144.47;49.42;52582.00;5011342;28;20447;-58
2023/05/31 01:53:39;;;;;;;4.20;1.67;;;;;;;-144.47;49.51;52566.13;5008471;28;20030;-59
2023/05/31 01:56:07;;;;;;;7.75;2.40;;;;;;;-144.47;49.77;52584.00;5012365;28;20083;-61
2023/05/31 01:58:36;;;;;;;9.55;2.30;;;;;;;-144.47;49.95;52605.84;5012447;28;20105;-62
2023/05/31 02:01:01;;;;;;;13.43;1.73;;;;;;;-144.47;50.11;52582.00;5013217;28;20502;-62
2023/05/31 02:03:27;;;;;;;5.45;1.75;;;;;;;-144.47;50.23;52576.06;5011445;28;20065;-62
2023/05/31 02:05:56;;;;;;;6.10;2.13;;;;;;;-144.47;50.53;52568.13;5003299;28;20018;-62
2023/05/31 02:08:23;;;;;;;12.68;2.20;;;;;;;-144.47;50.87;52609.81;5012799;28;20030;-63
2023/05/31 02:10:48;;;;;;;4.78;1.70;;;;;;;-144.47;51.08;52607.84;5012956;28;20048;-65
2023/05/31 02:13:13;;;;;;;8.15;2.30;;;;;;;-144.47;51.34;52558.19;5011976;28;20030;-65
2023/05/31 02:15:41;;;;;;;7.78;2.45;;;;;;;-144.47;51.37;52580.03;5010955;28;20072;-63
2023/05/31 02:18:07;;;;;;;9.02;2.65;;;;;;;-144.47;51.64;52574.06;5013322;28;20391;-63
2023/05/31 02:20:33;;;;;;;5.20;2.13;;;;;;;-144.47;51.93;52564.13;5009722;28;20025;-62
2023/05/31 02:22:59;;;;;;;13.32;2.50;;;;;;;-144.47;52.24;52597.91;5012581;28;20025;-63
2023/05/31 02:25:25;;;;;;;5.90;2.25;;;;;;;-144.47;52.56;52601.88;5011553;28;20112;-63
2023/05/31 02:27:50;;;;;;;11.52;2.70;;;;;;;-144.47;52.81;52568.13;5009214;28;20104;-63
2023/05/31 02:30:16;;;;;;;6.55;2.30;;;;;;;-144.47;53.12;52580.03;5012192;28;20054;-63
2023/05/31 02:32:42;;;;;;;9.20;1.98;;;;;;;-144.47;53.31;52625.72;5012462;28;20030;-63
2023/05/31 02:35:09;;;;;;;8.00;2.90;;;;;;;-144.47;53.34;52574.06;5011039;28;20022;-64
2023/05/31 02:37:36;;;;;;;8.35;2.63;;;;;;;-144.47;53.76;52589.97;5011951;28;20672;-64
2023/05/31 02:40:09;;;;;;;5.65;2.30;;;;;;;-144.47;53.95;52589.97;5011143;28;20038;-62
2023/05/31 02:42:41;;;;;;;9.18;1.85;;;;;;;-144.47;54.18;52580.03;5011438;28;20163;-63
2023/05/31 02:45:08;;;;;;;8.15;1.95;;;;;;;-144.47;54.29;52566.13;5010496;28;20025;-63
2023/05/31 02:47:37;;;;;;;9.27;2.60;;;;;;;-144.47;54.44;52587.97;5012028;28;20033;-61
2023/05/31 02:50:05;;;;;;;14.43;2.92;;;;;;;-144.47;54.74;52589.97;5011514;28;20030;-63
2023/05/31 02:52:30;;;;;;;7.95;2.50;;;;;;;-144.47;55.06;52643.56;5011917;28;20026;-65
2023/05/31 02:54:56;;;;;;;12.15;2.70;;;;;;;-144.47;55.26;52605.84;5010151;28;20036;-65
2023/05/31 02:57:21;;;;;;;7.32;2.20;;;;;;;-144.47;55.56;52597.91;5011852;28;20112;-65
2023/05/31 02:59:50;;;;;;;5.78;2.33;;;;;;;-144.47;55.67;52585.97;5010473;28;20032;-64
2023/05/31 03:02:15;;;;;;;7.93;2.33;;;;;;;-144.47;55.82;52599.88;5011587;28;20032;-63
2023/05/31 03:04:44;;;;;;;7.18;2.10;;;;;;;-144.47;55.92;52599.88;5002110;28;20026;-64
2023/05/31 03:07:10;;;;;;;4.40;1.88;;;;;;;-144.47;56.22;52597.91;5011100;28;20033;-64
2023/05/31 03:09:35;;;;;;;5.97;1.70;;;;;;;-144.47;56.41;52595.91;5011291;28;20037;-63
2023/05/31 03:12:01;;;;;;;8.43;2.40;;;;;;;-144.47;56.64;52617.75;5012159;28;20032;-64
2023/05/31 03:14:27;;;;;;;7.35;2.28;;;;;;;-144.47;56.75;52585.97;5009796;28;20037;-65
2023/05/31 03:16:52;;;;;;;4.40;2.03;;;;;;;-144.47;56.87;52584.00;5011375;28;20124;-63
2023/05/31 03:19:18;;;;;;;6.05;1.85;;;;;;;-144.47;57.21;52595.91;5011138;28;20030;-61
2023/05/31 03:21:44;;;;;;;5.15;2.15;;;;;;;-144.47;57.14;52597.91;5011980;28;20026;-64
2023/05/31 03:24:09;;;;;;;8.23;2.67;;;;;;;-144.47;57.36;52633.66;5010454;28;20026;-64
2023/05/31 03:26:35;;;;;;;10.43;2.15;;;;;;;-144.47;57.41;52589.97;5011666;28;20034;-64
2023/05/31 03:29:01;;;;;;;10.75;2.15;;;;;;;-144.47;57.47;52585.97;5011161;28;20101;-64
2023/05/31 03:31:28;;;;;;;9.52;2.42;;;;;;;-144.47;57.64;52635.63;5011161;28;20095;-64
2023/05/31 03:33:54;;;;;;;7.85;2.20;;;;;;;-144.47;57.79;52605.84;5010816;28;20045;-63
2023/05/31 03:36:19;;;;;;;5.10;2.10;;;;;;;-144.47;57.92;52593.94;5010997;28;20091;-65
2023/05/31 03:38:44;;;;;;;6.18;2.00;;;;;;;-144.47;58.02;52613.78;5010337;28;20026;-62
2023/05/31 03:41:10;;;;;;;6.93;2.40;;;;;;;-144.47;58.09;52585.97;5010855;28;20100;-65
2023/05/31 03:43:35;;;;;;;7.47;2.13;;;;;;;-144.47;58.13;52597.91;5009953;28;20396;-63
2023/05/31 03:46:01;;;;;;;10.00;2.75;;;;;;;-144.47;58.03;52597.91;5010877;28;20029;-65
2023/05/31 03:48:30;;;;;;;6.45;2.45;;;;;;;-144.47;58.20;52582.00;5006463;28;20120;-64
2023/05/31 03:50:56;;;;;;;11.50;2.53;;;;;;;-144.47;58.27;52595.91;5005579;28;20025;-63
2023/05/31 03:53:22;;;;;;;12.10;1.98;;;;;;;-144.47;58.03;52580.03;5008614;28;20123;-61
2023/05/31 03:55:47;;;;;;;6.03;2.08;;;;;;;-144.47;58.10;52595.91;5009570;28;20381;-64
2023/05/31 03:58:12;;;;;;;7.15;2.35;;;;;;;-144.47;57.95;52611.81;5010995;28;20049;-65
2023/05/31 04:00:38;;;;;;;6.55;2.10;;;;;;;-144.47;57.73;52611.81;5009316;28;20526;-62
2023/05/31 04:03:03;;;;;;;13.98;2.63;;;;;;;-144.47;57.53;52595.91;5010226;28;20032;-60
2023/05/31 04:05:29;;;;;;;4.95;1.90;;;;;;;-144.47;57.60;52597.91;5005989;28;20083;-63
2023/05/31 04:07:54;;;;;;;10.95;2.22;;;;;;;-144.47;57.89;52605.84;5015791;28;20021;-63
2023/05/31 04:10:20;;;;;;;15.77;2.80;;;;;;;-144.47;58.16;52591.94;5014893;28;20037;-64
2023/05/31 04:12:45;;;;;;;10.18;2.88;;;;;;;-144.47;57.58;52609.81;5008283;28;20606;-64
2023/05/31 04:15:11;;;;;;;5.50;1.90;;;;;;;-144.47;57.28;52589.97;5008278;28;20026;-63
2023/05/31 04:17:36;;;;;;;17.65;2.80;;;;;;;-144.47;57.21;52584.00;5022190;23;20108;-63
2023/05/31 04:20:04;;;;;;;6.90;2.30;;;;;;;-144.47;57.31;52609.81;5007762;28;20025;-65
2023/05/31 04:22:29;;;;;;;6.97;2.40;;;;;;;-144.47;57.29;52621.72;5009395;28;20039;-66
2023/05/31 04:24:55;;;;;;;11.65;2.97;;;;;;;-144.47;57.18;52593.94;5008777;28;20045;-67
2023/05/31 04:27:20;;;;;;;9.18;2.30;;;;;;;-144.47;57.11;52607.84;5010272;28;20026;-67
2023/05/31 04:29:45;;;;;;;7.25;2.55;;;;;;;-144.47;57.16;52609.81;5008967;28;20026;-64
2023/05/31 04:32:14;;;;;;;7.72;2.65;;;;;;;-144.47;56.94;52603.84;5009831;28;20030;-66
2023/05/31 04:34:40;;;;;;;11.52;2.33;;;;;;;-144.47;57.17;52605.84;5008833;28;20018;-67
2023/05/31 04:37:07;;;;;;;11.85;3.03;;;;;;;-144.47;57.20;52589.97;5009732;28;20030;-65
2023/05/31 04:39:32;;;;;;;11.60;2.40;;;;;;;-144.47;57.11;52601.88;5008772;28;20131;-66
2023/05/31 04:41:59;;;;;;;9.02;2.13;;;;;;;-144.47;57.04;52603.84;5009773;28;20086;-65
2023/05/31 04:44:25;;;;;;;10.57;2.85;;;;;;;-144.47;56.85;52582.00;5007670;28;20092;-67
2023/05/31 04:46:50;;;;;;;13.00;2.70;;;;;;;-144.47;57.17;52560.16;5003289;28;20021;-66
2023/05/31 04:49:16;;;;;;;9.20;2.55;;;;;;;-144.47;57.46;52593.94;4999329;28;20495;-66
2023/05/31 04:51:41;;;;;;;7.93;2.20;;;;;;;-144.47;57.37;52593.94;5005691;28;20090;-65
2023/05/31 04:54:07;;;;;;;7.30;2.45;;;;;;;-144.47;57.51;52580.03;5008621;28;20025;-66
2023/05/31 04:56:32;;;;;;;8.82;2.40;;;;;;;-144.47;57.63;52607.84;5009654;28;20660;-66
2023/05/31 04:58:58;;;;;;;8.90;2.33;;;;;;;-144.47;57.57;52574.06;5009198;28;20093;-68
2023/05/31 05:01:24;;;;;;;6.35;2.60;;;;;;;-144.47;57.71;52578.03;5009297;28;20022;-66
2023/05/31 05:03:51;;;;;;;18.25;3.25;;;;;;;-144.47;57.74;52584.00;5004808;28;20987;-66
2023/05/31 05:06:17;;;;;;;6.65;2.20;;;;;;;-144.47;57.31;52572.09;5007992;28;20033;-67
2023/05/31 05:08:43;;;;;;;9.70;2.35;;;;;;;-144.47;57.31;52591.94;5008792;28;20037;-67
2023/05/31 05:11:09;;;;;;;15.88;2.65;;;;;;;-144.47;57.29;52587.97;5008781;28;20029;-66
2023/05/31 05:13:35;;;;;;;9.00;2.55;;;;;;;-144.47;57.41;52582.00;5008279;28;20022;-67
2023/05/31 05:16:02;;;;;;;9.35;2.17;;;;;;;-144.47;57.54;52580.03;5008460;28;20029;-66
2023/05/31 05:18:27;;;;;;;11.80;2.60;;;;;;;-144.47;57.51;52552.22;5008387;28;20076;-67
2023/05/31 05:20:53;;;;;;;6.22;2.67;;;;;;;-144.47;57.48;52607.84;5008145;28;20026;-67
2023/05/31 05:23:18;;;;;;;7.72;2.80;;;;;;;-144.47;57.43;52599.88;5008616;28;20084;-67
2023/05/31 05:25:44;;;;;;;7.15;2.10;;;;;;;-144.47;57.79;52585.97;5007486;28;20037;-66
2023/05/31 05:28:10;;;;;;;5.90;2.13;;;;;;;-144.47;58.22;52601.88;4993870;28;20030;-66
2023/05/31 05:30:35;;;;;;;8.90;3.13;;;;;;;-144.47;57.34;52597.91;5005593;28;20036;-63
2023/05/31 05:33:00;;;;;;;12.60;2.33;;;;;;;-144.47;57.02;52597.91;5006880;28;20569;-66
2023/05/31 05:35:26;;;;;;;8.00;2.83;;;;;;;-144.47;57.23;52572.09;5007439;28;20626;-66
2023/05/31 05:37:52;;;;;;;9.32;2.92;;;;;;;-144.47;57.09;52609.81;5007766;28;20044;-67
2023/05/31 05:40:18;;;;;;;6.35;2.20;;;;;;;-144.47;56.82;52580.03;5008902;28;20026;-67
2023/05/31 05:42:45;;;;;;;14.38;3.25;;;;;;;-144.47;56.76;52580.03;5008945;28;20048;-66
2023/05/31 05:45:11;;;;;;;7.88;2.28;;;;;;;-144.47;56.04;52570.09;5008177;28;20475;-66
2023/05/31 05:47:36;;;;;;;5.45;2.25;;;;;;;-144.47;56.10;52585.97;5008759;28;20058;-67
2023/05/31 05:50:02;;;;;;;16.00;3.25;;;;;;;-144.47;56.23;52601.88;5008163;28;20030;-66
2023/05/31 05:52:28;;;;;;;18.02;2.75;;;;;;;-144.47;56.25;52584.00;5008688;28;20482;-66
2023/05/31 05:54:53;;;;;;;8.98;2.70;;;;;;;-144.47;55.65;52611.81;5006861;28;20022;-66
2023/05/31 05:57:19;;;;;;;18.00;3.15;;;;;;;-144.47;55.25;52584.00;5007928;28;20154;-67
2023/05/31 05:59:45;;;;;;;14.05;2.95;;;;;;;-144.47;54.84;52558.19;5007673;28;20026;-64
2023/05/31 06:02:11;;;;;;;16.98;3.10;;;;;;;-144.47;54.16;52595.91;5008670;28;20025;-65
2023/05/31 06:04:37;;;;;;;5.25;2.42;;;;;;;-144.47;53.52;52580.03;5004342;28;20029;-67
2023/05/31 06:07:03;;;;;;;13.27;2.70;;;;;;;-144.47;53.65;52560.16;5008572;28;20113;-67
2023/05/31 06:09:28;;;;;;;6.53;2.30;;;;;;;-144.47;53.34;52562.16;5008248;28;20061;-68
2023/05/31 06:11:54;;;;;;;10.20;2.45;;;;;;;-144.47;53.11;52574.06;5008921;28;20033;-66
2023/05/31 06:14:19;;;;;;;7.88;2.30;;;;;;;-144.47;53.01;52570.09;5007473;28;20084;-66
2023/05/31 06:16:45;;;;;;;12.38;2.50;;;;;;;-144.47;52.89;52562.16;5004930;28;20038;-66
2023/05/31 06:19:10;;;;;;;11.40;2.53;;;;;;;-144.47;53.10;52550.25;5006261;28;20026;-66
2023/05/31 06:21:35;;;;;;;12.85;2.60;;;;;;;-144.47;53.36;52584.00;5011208;28;20495;-66
2023/05/31 06:24:05;;;;;;;7.15;2.25;;;;;;;-144.47;53.21;52562.16;5008831;28;20631;-68
2023/05/31 06:26:30;;;;;;;10.27;2.50;;;;;;;-144.47;53.26;52580.03;5003439;28;20069;-65
2023/05/31 06:29:00;;;;;;;7.60;2.10;;;;;;;-144.47;53.07;52587.97;5006601;28;20029;-67
2023/05/31 06:31:25;;;;;;;10.50;3.75;;;;;;;-144.47;53.51;52566.13;5004687;28;20022;-65
2023/05/31 06:33:51;;;;;;;13.48;2.63;;;;;;;-144.47;53.32;52591.94;5006548;28;20029;-65
2023/05/31 06:36:16;;;;;;;6.25;2.58;;;;;;;-144.47;53.38;52562.16;5011467;28;20436;-67
2023/05/31 06:38:42;;;;;;;11.68;2.67;;;;;;;-144.47;53.45;52574.06;5015829;28;20400;-67
2023/05/31 06:41:07;;;;;;;7.95;2.72;;;;;;;-144.47;53.46;52582.00;5011858;28;20064;-67
2023/05/31 06:43:32;;;;;;;12.63;2.92;;;;;;;-144.47;52.67;52570.09;5010702;28;20037;-67
2023/05/31 06:45:58;;;;;;;6.60;2.38;;;;;;;-144.47;52.79;52566.13;5011249;28;20037;-67
2023/05/31 06:48:23;;;;;;;12.35;2.47;;;;;;;-144.47;52.87;52585.97;5011864;28;20022;-68
2023/05/31 06:50:48;;;;;;;5.88;2.22;;;;;;;-144.47;52.73;52595.91;5009463;28;20555;-66
2023/05/31 06:53:14;;;;;;;6.53;2.40;;;;;;;-144.47;52.40;52582.00;5010710;28;20029;-64
2023/05/31 06:55:39;;;;;;;7.63;2.30;;;;;;;-144.47;52.76;52572.09;5009956;28;20430;-66
2023/05/31 06:58:05;;;;;;;9.23;2.85;;;;;;;-144.47;52.84;52558.19;5010648;28;20022;-66
2023/05/31 07:00:31;;;;;;;7.10;2.83;;;;;;;-144.47;52.66;52587.97;5009940;28;20030;-67
2023/05/31 07:02:56;;;;;;;7.93;2.70;;;;;;;-144.47;52.51;52546.25;5011622;28;20092;-66
2023/05/31 07:05:21;;;;;;;7.82;3.10;;;;;;;-144.47;51.72;52572.09;5008798;28;20479;-67
2023/05/31 07:07:47;;;;;;;8.57;2.90;;;;;;;-144.47;52.08;52568.13;5009992;28;20068;-69
2023/05/31 07:10:13;;;;;;;8.23;2.72;;;;;;;-144.47;51.99;52544.28;5011281;28;20049;-63
2023/05/31 07:12:39;;;;;;;6.47;2.58;;;;;;;-144.47;51.77;52587.97;5010807;28;20060;-66
2023/05/31 07:15:05;;;;;;;8.05;3.00;;;;;;;-144.47;51.92;52572.09;5009805;28;20026;-67
2023/05/31 07:17:30;;;;;;;13.80;3.08;;;;;;;-144.47;51.59;52572.09;5012948;28;20156;-67
2023/05/31 07:19:56;;;;;;;15.85;5.20;;;;;;;-144.47;51.37;52576.06;5009998;28;20479;-67
2023/05/31 07:22:22;;;;;;;24.25;3.50;;;;;;;-144.47;50.95;52538.31;5010936;28;20029;-67
2023/05/31 07:24:48;;;;;;;13.40;2.70;;;;;;;-144.47;50.54;52576.06;5009795;28;20538;-66
2023/05/31 07:27:13;;;;;;;9.32;2.42;;;;;;;-144.47;50.11;52558.19;5010882;28;20471;-67
2023/05/31 07:29:39;;;;;;;14.52;2.80;;;;;;;-144.47;49.88;52574.06;5010024;28;20105;-65
2023/05/31 07:32:05;;;;;;;10.95;2.40;;;;;;;-144.47;49.75;52552.22;5011434;28;20026;-70
2023/05/31 07:34:31;;;;;;;47.08;6.05;;;;;;;-144.47;49.70;52576.06;5009566;28;20084;-68
2023/05/31 07:36:57;;;;;;;8.45;2.75;;;;;;;-144.47;49.34;52574.06;5010949;28;20033;-66
2023/05/31 07:39:23;;;;;;;9.68;2.72;;;;;;;-144.47;48.51;52530.38;5010286;28;20021;-65
2023/05/31 07:41:48;;;;;;;6.32;2.38;;;;;;;-144.47;48.10;52568.13;5011152;28;20087;-65
2023/05/31 07:44:16;;;;;;;10.02;2.53;;;;;;;-144.47;48.18;52578.03;5009103;28;20026;-67
2023/05/31 07:46:44;;;;;;;17.00;3.60;;;;;;;-144.47;48.17;52536.34;5010199;28;20036;-66
2023/05/31 07:49:10;;;;;;;12.02;2.83;;;;;;;-144.47;47.94;52556.19;5009724;28;20029;-66
2023/05/31 07:51:35;;;;;;;6.68;2.28;;;;;;;-144.47;48.30;52552.22;5010926;28;20041;-67
2023/05/31 07:54:02;;;;;;;11.00;3.00;;;;;;;-144.47;47.92;52570.09;5009314;28;20387;-67
2023/05/31 07:56:27;;;;;;;7.95;2.20;;;;;;;-144.47;47.89;52536.34;5008984;28;20018;-68
2023/05/31 07:58:52;;;;;;;11.70;2.78;;;;;;;-144.47;47.82;52566.13;5009542;28;20022;-64
2023/05/31 08:01:18;;;;;;;9.23;2.17;;;;;;;-144.47;47.56;52546.25;5009914;28;20388;-64
2023/05/31 08:03:43;;;;;;;9.75;3.10;;;;;;;-144.47;46.78;52572.09;5005912;28;20535;-70
2023/05/31 08:06:09;;;;;;;8.57;2.72;;;;;;;-144.47;46.25;52558.19;5004115;28;20685;-67
2023/05/31 08:08:34;;;;;;;12.05;2.90;;;;;;;-144.47;45.53;52593.94;5008604;28;20103;-66
2023/05/31 08:11:00;;;;;;;14.23;2.55;;;;;;;-144.47;45.28;52524.41;5009040;28;20390;-67
2023/05/31 08:13:28;;;;;;;7.47;2.58;;;;;;;-144.47;45.10;52591.94;5009187;28;20122;-66
2023/05/31 08:15:54;;;;;;;14.73;2.47;;;;;;;-144.47;45.32;52524.41;5008017;28;20026;-66
2023/05/31 08:18:20;;;;;;;9.65;2.30;;;;;;;-144.47;45.45;52532.38;5010496;28;20026;-67
2023/05/31 08:20:45;;;;;;;13.07;2.65;;;;;;;-144.47;45.23;52556.19;5008748;28;20026;-66
2023/05/31 08:23:21;;;;;;;14.60;2.80;;;;;;;-144.47;44.86;52546.25;5009465;28;20018;-66
2023/05/31 08:25:47;;;;;;;9.20;2.22;;;;;;;-144.47;44.59;52570.09;5008924;28;20030;-66
2023/05/31 08:28:13;;;;;;;24.00;2.72;;;;;;;-144.47;43.89;52568.13;5009478;28;20690;-68
2023/05/31 08:30:38;;;;;;;10.48;3.15;;;;;;;-144.47;43.85;52564.13;5008988;28;20026;-66
2023/05/31 08:33:04;;;;;;;11.35;2.88;;;;;;;-144.47;43.42;52514.50;5009979;28;20048;-66
2023/05/31 08:35:30;;;;;;;10.63;2.70;;;;;;;-144.47;42.59;52548.25;5008623;28;20397;-66
2023/05/31 08:37:55;;;;;;;15.15;2.30;;;;;;;-144.47;42.61;52558.19;5010452;28;20025;-66
2023/05/31 08:40:22;;;;;;;16.77;2.97;;;;;;;-144.47;42.67;52564.13;4991563;28;20030;-67
2023/05/31 08:42:52;;;;;;;7.93;2.53;;;;;;;-144.47;42.62;52566.13;5009668;28;20044;-67
2023/05/31 08:45:17;;;;;;;8.07;2.10;;;;;;;-144.47;42.82;52564.13;5008013;28;20026;-66
2023/05/31 08:47:45;;;;;;;12.05;2.25;;;;;;;-144.47;41.78;52566.13;5010213;28;20036;-64
2023/05/31 08:50:12;;;;;;;12.23;2.65;;;;;;;-144.47;42.82;52564.13;5008782;28;20051;-66
2023/05/31 08:52:38;;;;;;;11.43;2.85;;;;;;;-144.47;42.89;52580.03;5009570;28;20113;-67
2023/05/31 08:55:04;;;;;;;19.58;2.70;;;;;;;-144.47;42.55;52552.22;5004656;28;20399;-65
2023/05/31 08:57:31;;;;;;;11.02;2.40;;;;;;;-144.47;42.43;52568.13;5008583;28;20424;-65
2023/05/31 08:59:58;;;;;;;10.95;2.40;;;;;;;-144.47;42.63;52582.00;5008242;28;20029;-68
2023/05/31 09:02:24;;;;;;;6.53;2.47;;;;;;;-144.47;42.44;52560.16;5008153;28;20427;-66
2023/05/31 09:04:50;;;;;;;7.90;3.30;;;;;;;-144.47;42.24;52554.22;4999117;28;20458;-66
2023/05/31 09:07:16;;;;;;;9.13;2.10;;;;;;;-144.47;42.27;52570.09;5009271;28;20568;-66
2023/05/31 09:09:41;;;;;;;13.63;3.85;;;;;;;-144.47;40.76;52574.06;5007806;28;20026;-68
2023/05/31 09:12:07;;;;;;;30.88;3.63;;;;;;;-144.47;39.94;52574.06;5009329;28;20021;-68
2023/05/31 09:14:33;;;;;;;23.52;3.42;;;;;;;-144.47;39.45;52546.25;5007358;28;20555;-68
2023/05/31 09:16:59;;;;;;;16.02;2.17;;;;;;;-144.47;39.47;52548.25;5009323;28;20117;-68
2023/05/31 09:19:24;;;;;;;6.43;2.10;;;;;;;-144.47;39.67;52578.03;5009046;28;20133;-67
2023/05/31 09:21:52;;;;;;;20.35;2.63;;;;;;;-144.47;39.65;52582.00;5009614;28;20024;-67
2023/05/31 09:24:19;;;;;;;12.03;3.70;;;;;;;-144.47;39.86;52584.00;5006332;28;20018;-67
2023/05/31 09:26:52;;;;;;;8.60;2.13;;;;;;;-144.47;38.96;52574.06;4991440;28;20076;-67
2023/05/31 09:29:20;;;;;;;12.25;2.17;;;;;;;-144.47;38.26;52570.09;5007625;28;20121;-67
2023/05/31 09:31:46;;;;;;;8.23;1.70;;;;;;;-144.47;37.88;52570.09;5008671;28;20110;-65
2023/05/31 09:34:26;;;;;;;18.73;3.25;;;;;;;-144.47;38.13;52564.13;5008003;28;20120;-66
2023/05/31 09:36:52;;;;;;;7.13;1.55;;;;;;;-144.47;38.21;52530.38;5009290;28;20022;-68
2023/05/31 09:39:19;;;;;;;14.63;2.33;;;;;;;-144.47;37.92;52568.13;5007898;28;20021;-67
2023/05/31 09:41:49;;;;;;;13.20;1.95;;;;;;;-144.47;37.61;52568.13;5009458;28;20428;-68
2023/05/31 09:44:15;;;;;;;6.15;2.10;;;;;;;-144.47;37.85;52597.91;5007863;28;20483;-67
2023/05/31 09:46:40;;;;;;;9.85;1.67;;;;;;;-144.47;38.16;52574.06;5008606;28;20032;-65
2023/05/31 09:49:08;;;;;;;6.43;1.80;;;;;;;-144.47;38.32;52582.00;4995418;28;20435;-67
2023/05/31 09:51:34;;;;;;;7.63;1.73;;;;;;;-144.47;38.40;52558.19;5011293;28;20037;-66
2023/05/31 09:54:01;;;;;;;8.45;2.20;;;;;;;-144.47;38.33;52582.00;4996451;28;20044;-67
2023/05/31 09:56:28;;;;;;;7.20;2.13;;;;;;;-144.47;37.87;52578.03;5012246;28;20030;-66
2023/05/31 09:58:57;;;;;;;10.18;2.13;;;;;;;-144.47;37.39;52568.13;5011973;28;20041;-66
2023/05/31 10:01:22;;;;;;;5.90;1.60;;;;;;;-144.47;34.34;52554.22;5012432;28;20037;-65
2023/05/31 10:03:51;;;;;;;5.38;1.70;;;;;;;-144.47;33.84;52574.06;5008563;28;20026;-64
2023/05/31 10:06:17;;;;;;;8.45;2.17;;;;;;;-144.47;34.35;52562.16;5008291;28;20037;-67
2023/05/31 10:08:45;;;;;;;9.60;2.25;;;;;;;-144.47;34.61;52574.06;5012743;28;20144;-67
2023/05/31 10:11:13;;;;;;;8.07;2.30;;;;;;;-144.47;34.08;52564.13;5013191;28;20033;-66
2023/05/31 10:13:43;;;;;;;8.60;1.67;;;;;;;-144.47;34.07;52578.03;5011056;28;20037;-65
2023/05/31 10:16:10;;;;;;;10.40;2.47;;;;;;;-144.47;33.94;52562.16;5025884;23;20022;-65
2023/05/31 10:18:38;;;;;;;9.35;2.35;;;;;;;-144.47;34.05;52568.13;5010339;28;20067;-68
2023/05/31 10:21:10;;;;;;;8.60;2.03;;;;;;;-144.47;34.49;52562.16;4992225;28;20332;-69
2023/05/31 10:23:43;;;;;;;6.47;1.50;;;;;;;-144.47;34.20;52572.09;5009569;28;20109;-68
2023/05/31 10:26:18;;;;;;;8.73;1.70;;;;;;;-144.47;34.19;52582.00;5009024;28;20037;-68
2023/05/31 10:28:56;;;;;;;12.95;2.10;;;;;;;-144.47;34.49;52609.81;5011083;28;20022;-67
2023/05/31 10:31:26;;;;;;;5.90;1.80;;;;;;;-144.47;34.41;52580.03;4998265;28;20026;-70
2023/05/31 10:34:00;;;;;;;9.32;1.60;;;;;;;-144.47;34.34;52552.22;5005522;28;20025;-65
2023/05/31 10:36:28;;;;;;;19.42;3.15;;;;;;;-144.47;34.33;52556.19;5010444;28;20104;-68
2023/05/31 10:39:03;;;;;;;4.90;1.52;;;;;;;-144.47;34.01;52564.13;5007967;28;20024;-69
2023/05/31 10:41:39;;;;;;;6.60;1.80;;;;;;;-144.47;34.00;52558.19;5009583;28;20403;-67
2023/05/31 10:44:20;;;;;;;6.40;1.75;;;;;;;-144.47;34.34;52572.09;5009478;28;20029;-66
2023/05/31 10:46:48;;;;;;;12.45;1.95;;;;;;;-144.47;33.84;52585.97;5009389;28;20029;-69
2023/05/31 10:49:15;;;;;;;5.13;1.63;;;;;;;-144.47;33.63;52589.97;5009958;28;20104;-71
2023/05/31 10:51:42;;;;;;;9.70;1.83;;;;;;;-144.47;33.46;52574.06;5010479;28;20183;-67
2023/05/31 10:54:08;;;;;;;8.18;1.83;;;;;;;-144.47;33.50;52576.06;5009644;28;20053;-67
2023/05/31 10:56:37;;;;;;;3.60;1.52;;;;;;;-144.47;33.58;52576.06;5008371;28;20041;-70
2023/05/31 10:59:03;;;;;;;4.32;1.50;;;;;;;-144.47;33.65;52585.97;5009270;28;20034;-70
2023/05/31 11:01:30;;;;;;;6.63;1.70;;;;;;;-144.47;33.75;52562.16;5009286;28;20034;-68
2023/05/31 11:03:57;;;;;;;9.02;1.77;;;;;;;-144.47;33.54;52566.13;5002608;28;20057;-74
2023/05/31 11:06:36;;;;;;;11.27;2.50;;;;;;;-144.47;33.85;52580.03;5006335;28;20040;-69
2023/05/31 11:09:12;;;;;;;9.57;2.10;;;;;;;-144.47;33.42;52599.88;5009524;28;20088;-65
2023/05/31 11:11:41;;;;;;;9.98;1.70;;;;;;;-144.47;32.82;52601.88;5009914;28;20041;-70